Adamsville, Ohio
Current Conditions -  °F | °C
As of 7:53 AM on Thursday 27 Nov 2014 (Local Time) from KZZV Reporting Station
Overcast Overcast  
Wind Chill: 30°   Ceiling: 1400
Heat Index: 30°   Visibility: 9mi
Dew Point: 25°   Wind: 3mph
Humidity: 82%   Direction: 240°WSW
Pressure: 30.09"   Gusts: NA
Location:  40.07°N, 81.88°W
Report Text: KZZV 271253Z AUTO 24003KT 9SM OVC014 M01/M04 A3009 RMK AO2 SLP198 T10111039
Loading
Personal Weather Stations






























Interactive Weather Map New forecast layout! Learn more

10-Day Weather Forecast

Advertisements
Track Severe Weather on mobile